Biotrans — JWPN — position and weather

sailwx.info

Track history (hours):
 
Tides and Currents Weather Stations Pressure Air Temp Water Temp Dewpoint Dewpoint Depression Visibility Wind Speed Wind Dir Waves Ship Positions

Biotrans

Last reported at 2016-Jun-24 03:23 UTC. Time now 2016-Jun-24 22:09 UTC.
Position N 69°20' E 018°01'.

Length 55 m; draft 5.5 m.

Type: Cargo ship. MMSI: 259260000.

Date/timePositionNaut miles runAvg speedWind from/ knotsBaromVisibWave heightAir tempDewpointWater temp
2016-Jun-24 03:23N 69°20' E 018°01'7 8.1
2016-Jun-24 02:33N 69°13' E 017°59'7 7.1
2016-Jun-24 01:33N 69°08' E 017°45'110 7.3
2016-Jun-23 10:27N 67°44' E 014°31'9 9.6
2016-Jun-23 09:33N 67°35' E 014°30'9 9.5
2016-Jun-23 08:33N 67°26' E 014°28'10 9.6
2016-Jun-23 07:34N 67°17' E 014°15'19 9.4
2016-Jun-23 05:31N 67°02' E 013°47'9 8.3
2016-Jun-23 04:24N 66°55' E 013°30'8 8.9
2016-Jun-23 03:31N 66°50' E 013°16'19 9.5
2016-Jun-23 01:30N 66°32' E 012°57'1010.5
2016-Jun-23 00:33N 66°22' E 012°58'68 9.4
2016-Jun-22 17:23N 65°19' E 011°60'8 9.8
2016-Jun-22 16:31N 65°11' E 011°52'9 9.7
2016-Jun-22 15:33N 65°03' E 011°43'9 9.4
2016-Jun-22 14:33N 64°56' E 011°27'7 7.1
2016-Jun-22 13:33N 64°52' E 011°14'9 8.8
2016-Jun-22 12:33N 64°45' E 011°00'2 0.1
2016-Jun-21 08:33N 64°44' E 010°56'8 8.5
2016-Jun-21 07:33N 64°50' E 011°10'17 8.3
2016-Jun-21 05:33N 65°01' E 011°40'8 8.4
2016-Jun-21 04:33N 65°08' E 011°50'9 8.4
2016-Jun-21 03:28N 65°16' E 011°58'0 0.0
2016-Jun-20 08:33N 65°16' E 011°58'9 8.8
2016-Jun-20 07:29N 65°08' E 011°49'8 8.9
2016-Jun-20 06:33N 65°01' E 011°39'9 8.9
2016-Jun-20 05:33N 64°55' E 011°23'8 8.1
2016-Jun-20 04:33N 64°49' E 011°10'10 8.8
2016-Jun-20 03:27N 64°43' E 010°53'5 0.1
2016-Jun-18 09:33N 64°47' E 010°54'3 3.1
2016-Jun-18 08:33N 64°48' E 011°02'3 3.0
2016-Jun-18 07:33N 64°47' E 010°55'8 7.7
2016-Jun-18 06:33N 64°50' E 011°11'9 8.5
2016-Jun-18 05:33N 64°56' E 011°26'8 8.2
2016-Jun-18 04:33N 65°01' E 011°41'9 8.8
2016-Jun-18 03:33N 65°09' E 011°50'77 4.8
2016-Jun-17 11:33N 66°22' E 012°49'8 8.4
2016-Jun-17 10:33N 66°30' E 012°45'15 4.6
2016-Jun-17 07:18N 66°42' E 013°07'27 7.1
2016-Jun-17 03:28N 67°06' E 013°40'9 9.5
2016-Jun-17 02:33N 67°11' E 013°58'9 9.1
2016-Jun-17 01:33N 67°17' E 014°15'9 9.2
2016-Jun-17 00:34N 67°25' E 014°28'9 9.1
2016-Jun-16 23:33N 67°32' E 014°44'10 8.8
2016-Jun-16 22:28N 67°36' E 015°07'8 8.8
2016-Jun-16 21:31N 67°31' E 015°25'4 3.8
2016-Jun-16 20:34N 67°31' E 015°35'0 0.0
2016-Jun-16 19:33N 67°31' E 015°34'7 7.0
2016-Jun-16 18:32N 67°32' E 015°16'9 8.7
2016-Jun-16 17:33N 67°37' E 014°57'9 9.0
2016-Jun-16 16:34N 67°38' E 014°34'8 7.9
2016-Jun-16 15:33N 67°44' E 014°22'106 9.3
2016-Jun-16 04:09N 69°06' E 017°25'6 9.7
2016-Jun-16 03:33N 69°07' E 017°40'8 8.3
2016-Jun-16 02:32N 69°13' E 017°59'  
Track history (hours):
 
Tides and Currents Weather Stations Pressure Air Temp Water Temp Dewpoint Dewpoint Depression Visibility Wind Speed Wind Dir Waves Ship Positions

Biotrans

Last reported at 2016-Jun-24 03:23 UTC. Time now 2016-Jun-24 22:09 UTC.
Position N 69°20' E 018°01'.

Length 55 m; draft 5.5 m.

Type: Cargo ship. MMSI: 259260000.

Date/timePositionNaut miles runAvg speedWind from/ knotsBaromVisibWave heightAir tempDewpointWater temp
2016-Jun-24 03:23N 69°20' E 018°01'7 8.1
2016-Jun-24 02:33N 69°13' E 017°59'7 7.1
2016-Jun-24 01:33N 69°08' E 017°45'110 7.3
2016-Jun-23 10:27N 67°44' E 014°31'9 9.6
2016-Jun-23 09:33N 67°35' E 014°30'9 9.5
2016-Jun-23 08:33N 67°26' E 014°28'10 9.6
2016-Jun-23 07:34N 67°17' E 014°15'19 9.4
2016-Jun-23 05:31N 67°02' E 013°47'9 8.3
2016-Jun-23 04:24N 66°55' E 013°30'8 8.9
2016-Jun-23 03:31N 66°50' E 013°16'19 9.5
2016-Jun-23 01:30N 66°32' E 012°57'1010.5
2016-Jun-23 00:33N 66°22' E 012°58'68 9.4
2016-Jun-22 17:23N 65°19' E 011°60'8 9.8
2016-Jun-22 16:31N 65°11' E 011°52'9 9.7
2016-Jun-22 15:33N 65°03' E 011°43'9 9.4
2016-Jun-22 14:33N 64°56' E 011°27'7 7.1
2016-Jun-22 13:33N 64°52' E 011°14'9 8.8
2016-Jun-22 12:33N 64°45' E 011°00'2 0.1
2016-Jun-21 08:33N 64°44' E 010°56'8 8.5
2016-Jun-21 07:33N 64°50' E 011°10'17 8.3
2016-Jun-21 05:33N 65°01' E 011°40'8 8.4
2016-Jun-21 04:33N 65°08' E 011°50'9 8.4
2016-Jun-21 03:28N 65°16' E 011°58'0 0.0
2016-Jun-20 08:33N 65°16' E 011°58'9 8.8
2016-Jun-20 07:29N 65°08' E 011°49'8 8.9
2016-Jun-20 06:33N 65°01' E 011°39'9 8.9
2016-Jun-20 05:33N 64°55' E 011°23'8 8.1
2016-Jun-20 04:33N 64°49' E 011°10'10 8.8
2016-Jun-20 03:27N 64°43' E 010°53'5 0.1
2016-Jun-18 09:33N 64°47' E 010°54'3 3.1
2016-Jun-18 08:33N 64°48' E 011°02'3 3.0
2016-Jun-18 07:33N 64°47' E 010°55'8 7.7
2016-Jun-18 06:33N 64°50' E 011°11'9 8.5
2016-Jun-18 05:33N 64°56' E 011°26'8 8.2
2016-Jun-18 04:33N 65°01' E 011°41'9 8.8
2016-Jun-18 03:33N 65°09' E 011°50'77 4.8
2016-Jun-17 11:33N 66°22' E 012°49'8 8.4
2016-Jun-17 10:33N 66°30' E 012°45'15 4.6
2016-Jun-17 07:18N 66°42' E 013°07'27 7.1
2016-Jun-17 03:28N 67°06' E 013°40'9 9.5
2016-Jun-17 02:33N 67°11' E 013°58'9 9.1
2016-Jun-17 01:33N 67°17' E 014°15'9 9.2
2016-Jun-17 00:34N 67°25' E 014°28'9 9.1
2016-Jun-16 23:33N 67°32' E 014°44'10 8.8
2016-Jun-16 22:28N 67°36' E 015°07'8 8.8
2016-Jun-16 21:31N 67°31' E 015°25'4 3.8
2016-Jun-16 20:34N 67°31' E 015°35'0 0.0
2016-Jun-16 19:33N 67°31' E 015°34'7 7.0
2016-Jun-16 18:32N 67°32' E 015°16'9 8.7
2016-Jun-16 17:33N 67°37' E 014°57'9 9.0
2016-Jun-16 16:34N 67°38' E 014°34'8 7.9
2016-Jun-16 15:33N 67°44' E 014°22'106 9.3
2016-Jun-16 04:09N 69°06' E 017°25'6 9.7
2016-Jun-16 03:33N 69°07' E 017°40'8 8.3
2016-Jun-16 02:32N 69°13' E 017°59'  

Dump ship's entire track history